Terminal Aerodrome Forecast
Issued by NWS

Home | Current Version | Previous Version | Text Only | Print | Product List | Glossary On
Versions: 1 2 3 4 5 6 7 8 9 10 11 12 13 14 15
366
FTAK31 PAJN 180534
TAFAWG
TAF
PAWG 180534Z 1806/1906 VRB05KT P6SM -RA BKN035 OVC050
     FM181200 11012KT 6SM -RA BR BKN025 OVC035
      AMD LTD TO CLD VIS AND WIND 1806/1815=

USA.gov is the U.S. government's official web portal to all federal, state and local government web resources and services.